sensor_id;sensor_type;location;lat;lon;timestamp;temperature;humidity
21944;DHT22;11136;48.778;9.126;2023-07-13T00:02:24;22.90;78.20
21944;DHT22;11136;48.778;9.126;2023-07-13T00:04:53;22.80;78.40
21944;DHT22;11136;48.778;9.126;2023-07-13T00:07:19;22.80;78.20
21944;DHT22;11136;48.778;9.126;2023-07-13T00:09:46;23.00;78.20
21944;DHT22;11136;48.778;9.126;2023-07-13T00:12:30;22.70;78.10
21944;DHT22;11136;48.778;9.126;2023-07-13T00:15:01;22.90;78.40
21944;DHT22;11136;48.778;9.126;2023-07-13T00:17:27;22.80;78.00
21944;DHT22;11136;48.778;9.126;2023-07-13T00:19:53;22.70;77.70
21944;DHT22;11136;48.778;9.126;2023-07-13T00:22:19;22.70;77.60
21944;DHT22;11136;48.778;9.126;2023-07-13T00:24:45;22.70;77.30
21944;DHT22;11136;48.778;9.126;2023-07-13T00:27:11;22.70;77.10
21944;DHT22;11136;48.778;9.126;2023-07-13T00:29:37;22.70;76.90
21944;DHT22;11136;48.778;9.126;2023-07-13T00:32:04;22.70;76.60
21944;DHT22;11136;48.778;9.126;2023-07-13T00:34:30;22.70;76.20
21944;DHT22;11136;48.778;9.126;2023-07-13T00:36:56;22.70;76.30
21944;DHT22;11136;48.778;9.126;2023-07-13T00:39:21;22.90;76.20
21944;DHT22;11136;48.778;9.126;2023-07-13T00:41:48;22.60;76.00
21944;DHT22;11136;48.778;9.126;2023-07-13T00:44:14;22.60;75.80
21944;DHT22;11136;48.778;9.126;2023-07-13T00:46:41;22.60;75.80
21944;DHT22;11136;48.778;9.126;2023-07-13T00:49:10;22.60;75.90
21944;DHT22;11136;48.778;9.126;2023-07-13T00:51:43;22.60;75.80
21944;DHT22;11136;48.778;9.126;2023-07-13T00:54:12;22.60;75.60
21944;DHT22;11136;48.778;9.126;2023-07-13T00:56:39;22.60;75.70
21944;DHT22;11136;48.778;9.126;2023-07-13T00:59:07;22.50;75.30
21944;DHT22;11136;48.778;9.126;2023-07-13T01:01:33;22.50;75.00
21944;DHT22;11136;48.778;9.126;2023-07-13T01:03:59;22.50;74.80
21944;DHT22;11136;48.778;9.126;2023-07-13T01:06:25;22.50;74.70
21944;DHT22;11136;48.778;9.126;2023-07-13T01:08:51;22.40;74.60
21944;DHT22;11136;48.778;9.126;2023-07-13T01:11:21;22.40;74.70
21944;DHT22;11136;48.778;9.126;2023-07-13T01:13:47;22.40;74.30
21944;DHT22;11136;48.778;9.126;2023-07-13T01:16:21;22.40;74.20
21944;DHT22;11136;48.778;9.126;2023-07-13T01:18:48;22.40;74.10
21944;DHT22;11136;48.778;9.126;2023-07-13T01:21:14;22.40;74.30
21944;DHT22;11136;48.778;9.126;2023-07-13T01:23:40;22.40;74.30
21944;DHT22;11136;48.778;9.126;2023-07-13T01:26:05;22.40;74.20
21944;DHT22;11136;48.778;9.126;2023-07-13T01:28:31;22.40;74.40
21944;DHT22;11136;48.778;9.126;2023-07-13T01:31:02;22.40;74.80
21944;DHT22;11136;48.778;9.126;2023-07-13T01:33:28;22.30;74.70
21944;DHT22;11136;48.778;9.126;2023-07-13T01:35:54;22.40;75.20
21944;DHT22;11136;48.778;9.126;2023-07-13T01:38:23;22.30;75.40
21944;DHT22;11136;48.778;9.126;2023-07-13T01:40:52;22.30;75.80
21944;DHT22;11136;48.778;9.126;2023-07-13T01:43:18;22.30;76.20
21944;DHT22;11136;48.778;9.126;2023-07-13T01:45:44;22.20;76.50
21944;DHT22;11136;48.778;9.126;2023-07-13T01:48:11;22.20;76.60
21944;DHT22;11136;48.778;9.126;2023-07-13T01:50:36;22.40;77.10
21944;DHT22;11136;48.778;9.126;2023-07-13T01:53:03;22.20;77.40
21944;DHT22;11136;48.778;9.126;2023-07-13T01:55:29;22.10;77.60
21944;DHT22;11136;48.778;9.126;2023-07-13T01:57:55;22.20;77.90
21944;DHT22;11136;48.778;9.126;2023-07-13T02:00:21;22.10;78.30
21944;DHT22;11136;48.778;9.126;2023-07-13T02:02:47;22.00;78.50
21944;DHT22;11136;48.778;9.126;2023-07-13T02:05:13;22.00;78.60
21944;DHT22;11136;48.778;9.126;2023-07-13T02:07:39;22.00;78.80
21944;DHT22;11136;48.778;9.126;2023-07-13T02:10:07;21.90;78.70
21944;DHT22;11136;48.778;9.126;2023-07-13T02:12:33;21.90;78.80
21944;DHT22;11136;48.778;9.126;2023-07-13T02:14:58;21.80;78.80
21944;DHT22;11136;48.778;9.126;2023-07-13T02:17:25;21.80;79.00
21944;DHT22;11136;48.778;9.126;2023-07-13T02:19:50;21.80;79.20
21944;DHT22;11136;48.778;9.126;2023-07-13T02:22:16;21.70;79.50
21944;DHT22;11136;48.778;9.126;2023-07-13T02:24:42;21.70;79.70
21944;DHT22;11136;48.778;9.126;2023-07-13T02:27:08;21.70;80.00
21944;DHT22;11136;48.778;9.126;2023-07-13T02:29:33;21.60;80.10
21944;DHT22;11136;48.778;9.126;2023-07-13T02:31:59;21.60;80.40
21944;DHT22;11136;48.778;9.126;2023-07-13T02:34:25;21.60;80.50
21944;DHT22;11136;48.778;9.126;2023-07-13T02:36:50;21.60;80.90
21944;DHT22;11136;48.778;9.126;2023-07-13T02:39:16;21.50;80.90
21944;DHT22;11136;48.778;9.126;2023-07-13T02:41:41;21.80;81.10
21944;DHT22;11136;48.778;9.126;2023-07-13T02:44:07;21.50;80.90
21944;DHT22;11136;48.778;9.126;2023-07-13T02:46:35;21.50;81.10
21944;DHT22;11136;48.778;9.126;2023-07-13T02:49:02;21.40;81.20
21944;DHT22;11136;48.778;9.126;2023-07-13T02:51:28;21.40;81.10
21944;DHT22;11136;48.778;9.126;2023-07-13T02:53:54;21.40;82.00
21944;DHT22;11136;48.778;9.126;2023-07-13T02:56:23;21.30;81.40
21944;DHT22;11136;48.778;9.126;2023-07-13T02:58:49;21.30;81.40
21944;DHT22;11136;48.778;9.126;2023-07-13T03:01:14;21.20;81.50
21944;DHT22;11136;48.778;9.126;2023-07-13T03:03:45;21.20;81.70
21944;DHT22;11136;48.778;9.126;2023-07-13T03:06:12;21.20;81.60
21944;DHT22;11136;48.778;9.126;2023-07-13T03:08:38;21.20;81.60
21944;DHT22;11136;48.778;9.126;2023-07-13T03:11:06;21.10;81.60
21944;DHT22;11136;48.778;9.126;2023-07-13T03:13:33;21.10;81.50
21944;DHT22;11136;48.778;9.126;2023-07-13T03:15:59;21.10;81.50
21944;DHT22;11136;48.778;9.126;2023-07-13T03:18:27;21.00;81.50
21944;DHT22;11136;48.778;9.126;2023-07-13T03:20:53;21.00;81.70
21944;DHT22;11136;48.778;9.126;2023-07-13T03:23:20;21.00;81.90
21944;DHT22;11136;48.778;9.126;2023-07-13T03:25:46;21.00;82.10
21944;DHT22;11136;48.778;9.126;2023-07-13T03:28:13;20.90;82.10
21944;DHT22;11136;48.778;9.126;2023-07-13T03:30:39;20.90;82.30
21944;DHT22;11136;48.778;9.126;2023-07-13T03:33:04;20.90;82.40
21944;DHT22;11136;48.778;9.126;2023-07-13T03:35:30;20.90;82.40
21944;DHT22;11136;48.778;9.126;2023-07-13T03:37:58;21.10;82.70
21944;DHT22;11136;48.778;9.126;2023-07-13T03:40:25;20.90;82.60
21944;DHT22;11136;48.778;9.126;2023-07-13T03:42:51;20.90;82.60
21944;DHT22;11136;48.778;9.126;2023-07-13T03:45:17;20.90;82.80
21944;DHT22;11136;48.778;9.126;2023-07-13T03:47:43;20.90;82.90
21944;DHT22;11136;48.778;9.126;2023-07-13T03:50:09;20.80;82.90
21944;DHT22;11136;48.778;9.126;2023-07-13T03:52:34;20.90;83.10
21944;DHT22;11136;48.778;9.126;2023-07-13T03:55:00;20.80;83.10
21944;DHT22;11136;48.778;9.126;2023-07-13T03:57:25;20.80;83.20
21944;DHT22;11136;48.778;9.126;2023-07-13T03:59:51;20.80;83.40
21944;DHT22;11136;48.778;9.126;2023-07-13T04:02:17;20.80;83.50
21944;DHT22;11136;48.778;9.126;2023-07-13T04:04:43;20.80;83.60
21944;DHT22;11136;48.778;9.126;2023-07-13T04:07:08;20.80;83.80
21944;DHT22;11136;48.778;9.126;2023-07-13T04:09:35;20.80;83.90
21944;DHT22;11136;48.778;9.126;2023-07-13T04:12:00;20.80;84.00
21944;DHT22;11136;48.778;9.126;2023-07-13T04:14:26;20.80;84.10
21944;DHT22;11136;48.778;9.126;2023-07-13T04:16:52;20.80;84.10
21944;DHT22;11136;48.778;9.126;2023-07-13T04:19:20;20.70;84.20
21944;DHT22;11136;48.778;9.126;2023-07-13T04:21:45;20.70;84.40
21944;DHT22;11136;48.778;9.126;2023-07-13T04:24:11;20.90;84.80
21944;DHT22;11136;48.778;9.126;2023-07-13T04:26:37;20.70;84.80
21944;DHT22;11136;48.778;9.126;2023-07-13T04:29:04;20.70;85.00
21944;DHT22;11136;48.778;9.126;2023-07-13T04:31:30;20.70;85.10
21944;DHT22;11136;48.778;9.126;2023-07-13T04:33:56;20.70;85.20
21944;DHT22;11136;48.778;9.126;2023-07-13T04:36:22;20.60;85.40
21944;DHT22;11136;48.778;9.126;2023-07-13T04:38:47;20.70;85.70
21944;DHT22;11136;48.778;9.126;2023-07-13T04:41:14;20.70;85.80
21944;DHT22;11136;48.778;9.126;2023-07-13T04:43:41;20.70;85.90
21944;DHT22;11136;48.778;9.126;2023-07-13T04:46:08;20.90;86.00
21944;DHT22;11136;48.778;9.126;2023-07-13T04:48:35;20.70;86.10
21944;DHT22;11136;48.778;9.126;2023-07-13T04:51:01;20.60;86.10
21944;DHT22;11136;48.778;9.126;2023-07-13T04:53:28;20.60;86.30
21944;DHT22;11136;48.778;9.126;2023-07-13T04:55:54;20.60;86.30
21944;DHT22;11136;48.778;9.126;2023-07-13T04:58:20;20.60;86.40
21944;DHT22;11136;48.778;9.126;2023-07-13T05:00:47;20.60;86.50
21944;DHT22;11136;48.778;9.126;2023-07-13T05:03:12;20.60;86.70
21944;DHT22;11136;48.778;9.126;2023-07-13T05:05:38;20.60;86.80
21944;DHT22;11136;48.778;9.126;2023-07-13T05:08:04;20.60;86.90
21944;DHT22;11136;48.778;9.126;2023-07-13T05:10:29;20.60;86.90
21944;DHT22;11136;48.778;9.126;2023-07-13T05:12:55;20.60;87.00
21944;DHT22;11136;48.778;9.126;2023-07-13T05:15:22;20.70;86.90
21944;DHT22;11136;48.778;9.126;2023-07-13T05:17:49;20.70;86.80
21944;DHT22;11136;48.778;9.126;2023-07-13T05:20:15;20.60;86.40
21944;DHT22;11136;48.778;9.126;2023-07-13T05:22:42;20.60;86.50
21944;DHT22;11136;48.778;9.126;2023-07-13T05:25:08;20.60;86.70
21944;DHT22;11136;48.778;9.126;2023-07-13T05:27:36;20.60;86.80
21944;DHT22;11136;48.778;9.126;2023-07-13T05:30:03;20.60;86.80
21944;DHT22;11136;48.778;9.126;2023-07-13T05:32:29;20.60;86.80
21944;DHT22;11136;48.778;9.126;2023-07-13T05:34:55;20.60;86.90
21944;DHT22;11136;48.778;9.126;2023-07-13T05:37:20;20.70;87.10
21944;DHT22;11136;48.778;9.126;2023-07-13T05:39:46;20.70;87.00
21944;DHT22;11136;48.778;9.126;2023-07-13T05:42:12;20.70;86.60
21944;DHT22;11136;48.778;9.126;2023-07-13T05:44:37;20.70;86.00
21944;DHT22;11136;48.778;9.126;2023-07-13T05:47:03;20.70;85.80
21944;DHT22;11136;48.778;9.126;2023-07-13T05:49:29;20.70;85.30
21944;DHT22;11136;48.778;9.126;2023-07-13T05:51:56;20.70;84.60
21944;DHT22;11136;48.778;9.126;2023-07-13T05:54:22;20.70;84.50
21944;DHT22;11136;48.778;9.126;2023-07-13T05:56:47;20.70;85.00
21944;DHT22;11136;48.778;9.126;2023-07-13T05:59:13;20.70;85.50
21944;DHT22;11136;48.778;9.126;2023-07-13T06:01:38;20.70;85.90
21944;DHT22;11136;48.778;9.126;2023-07-13T06:04:04;20.80;85.70
21944;DHT22;11136;48.778;9.126;2023-07-13T06:06:30;20.80;85.80
21944;DHT22;11136;48.778;9.126;2023-07-13T06:08:55;20.80;85.40
21944;DHT22;11136;48.778;9.126;2023-07-13T06:11:23;20.80;84.90
21944;DHT22;11136;48.778;9.126;2023-07-13T06:13:50;20.80;84.80
21944;DHT22;11136;48.778;9.126;2023-07-13T06:16:15;21.00;84.50
21944;DHT22;11136;48.778;9.126;2023-07-13T06:18:42;20.80;83.90
21944;DHT22;11136;48.778;9.126;2023-07-13T06:21:08;20.90;83.50
21944;DHT22;11136;48.778;9.126;2023-07-13T06:23:34;20.90;83.10
21944;DHT22;11136;48.778;9.126;2023-07-13T06:25:59;20.90;82.70
21944;DHT22;11136;48.778;9.126;2023-07-13T06:28:25;20.90;81.30
21944;DHT22;11136;48.778;9.126;2023-07-13T06:30:51;21.10;81.40
21944;DHT22;11136;48.778;9.126;2023-07-13T06:33:16;20.90;81.50
21944;DHT22;11136;48.778;9.126;2023-07-13T06:35:42;20.90;81.80
21944;DHT22;11136;48.778;9.126;2023-07-13T06:38:08;20.90;81.50
21944;DHT22;11136;48.778;9.126;2023-07-13T06:40:34;21.00;81.40
21944;DHT22;11136;48.778;9.126;2023-07-13T06:42:59;21.00;81.20
21944;DHT22;11136;48.778;9.126;2023-07-13T06:45:25;21.00;81.30
21944;DHT22;11136;48.778;9.126;2023-07-13T06:47:50;21.10;81.10
21944;DHT22;11136;48.778;9.126;2023-07-13T06:50:16;21.10;80.50
21944;DHT22;11136;48.778;9.126;2023-07-13T06:52:41;21.10;79.50
21944;DHT22;11136;48.778;9.126;2023-07-13T06:55:08;21.10;78.50
21944;DHT22;11136;48.778;9.126;2023-07-13T06:57:34;21.10;77.90
21944;DHT22;11136;48.778;9.126;2023-07-13T06:59:59;21.10;78.10
21944;DHT22;11136;48.778;9.126;2023-07-13T07:02:25;21.10;78.20
21944;DHT22;11136;48.778;9.126;2023-07-13T07:04:50;21.10;78.60
21944;DHT22;11136;48.778;9.126;2023-07-13T07:07:16;21.20;78.70
21944;DHT22;11136;48.778;9.126;2023-07-13T07:09:42;21.20;78.60
21944;DHT22;11136;48.778;9.126;2023-07-13T07:12:08;21.40;78.70
21944;DHT22;11136;48.778;9.126;2023-07-13T07:14:33;21.30;78.40
21944;DHT22;11136;48.778;9.126;2023-07-13T07:17:00;21.30;78.40
21944;DHT22;11136;48.778;9.126;2023-07-13T07:19:27;21.30;78.60
21944;DHT22;11136;48.778;9.126;2023-07-13T07:21:53;21.40;78.60
21944;DHT22;11136;48.778;9.126;2023-07-13T07:24:18;21.50;78.60
21944;DHT22;11136;48.778;9.126;2023-07-13T07:26:44;21.50;79.10
21944;DHT22;11136;48.778;9.126;2023-07-13T07:29:10;21.60;78.10
21944;DHT22;11136;48.778;9.126;2023-07-13T07:31:35;21.60;77.50
21944;DHT22;11136;48.778;9.126;2023-07-13T07:34:02;21.70;77.20
21944;DHT22;11136;48.778;9.126;2023-07-13T07:36:28;21.80;76.30
21944;DHT22;11136;48.778;9.126;2023-07-13T07:38:54;21.80;76.30
21944;DHT22;11136;48.778;9.126;2023-07-13T07:41:19;21.90;76.20
21944;DHT22;11136;48.778;9.126;2023-07-13T07:43:45;22.20;75.30
21944;DHT22;11136;48.778;9.126;2023-07-13T07:46:10;22.00;74.10
21944;DHT22;11136;48.778;9.126;2023-07-13T07:48:36;22.00;74.00
21944;DHT22;11136;48.778;9.126;2023-07-13T07:51:01;22.00;73.70
21944;DHT22;11136;48.778;9.126;2023-07-13T07:53:27;22.00;73.70
21944;DHT22;11136;48.778;9.126;2023-07-13T07:55:52;22.10;73.60
21944;DHT22;11136;48.778;9.126;2023-07-13T07:58:18;22.10;73.50
21944;DHT22;11136;48.778;9.126;2023-07-13T08:00:44;22.10;73.10
21944;DHT22;11136;48.778;9.126;2023-07-13T08:03:09;22.20;73.00
21944;DHT22;11136;48.778;9.126;2023-07-13T08:05:36;22.30;72.80
21944;DHT22;11136;48.778;9.126;2023-07-13T08:08:02;22.30;72.60
21944;DHT22;11136;48.778;9.126;2023-07-13T08:10:28;22.40;73.10
21944;DHT22;11136;48.778;9.126;2023-07-13T08:12:54;22.40;72.60
21944;DHT22;11136;48.778;9.126;2023-07-13T08:15:19;22.50;72.30
21944;DHT22;11136;48.778;9.126;2023-07-13T08:17:47;22.60;72.20
21944;DHT22;11136;48.778;9.126;2023-07-13T08:20:13;22.90;72.10
21944;DHT22;11136;48.778;9.126;2023-07-13T08:22:39;22.80;71.90
21944;DHT22;11136;48.778;9.126;2023-07-13T08:25:05;22.70;71.60
21944;DHT22;11136;48.778;9.126;2023-07-13T08:27:30;22.90;71.40
21944;DHT22;11136;48.778;9.126;2023-07-13T08:29:56;22.90;70.60
21944;DHT22;11136;48.778;9.126;2023-07-13T08:32:23;22.90;70.50
21944;DHT22;11136;48.778;9.126;2023-07-13T08:34:49;22.90;70.60
21944;DHT22;11136;48.778;9.126;2023-07-13T08:37:15;22.90;70.50
21944;DHT22;11136;48.778;9.126;2023-07-13T08:39:41;22.90;70.80
21944;DHT22;11136;48.778;9.126;2023-07-13T08:42:15;23.00;70.70
21944;DHT22;11136;48.778;9.126;2023-07-13T08:47:21;23.10;69.70
21944;DHT22;11136;48.778;9.126;2023-07-13T08:49:48;23.20;70.00
21944;DHT22;11136;48.778;9.126;2023-07-13T08:52:33;23.50;70.70
21944;DHT22;11136;48.778;9.126;2023-07-13T08:55:06;23.80;70.30
21944;DHT22;11136;48.778;9.126;2023-07-13T08:57:34;24.00;69.60
21944;DHT22;11136;48.778;9.126;2023-07-13T09:00:01;24.20;69.60
21944;DHT22;11136;48.778;9.126;2023-07-13T09:02:45;24.40;69.10
21944;DHT22;11136;48.778;9.126;2023-07-13T09:05:27;24.50;68.70
21944;DHT22;11136;48.778;9.126;2023-07-13T09:10:49;24.60;67.60
21944;DHT22;11136;48.778;9.126;2023-07-13T09:15:46;24.60;67.10
21944;DHT22;11136;48.778;9.126;2023-07-13T09:18:28;24.60;66.40
21944;DHT22;11136;48.778;9.126;2023-07-13T09:21:03;24.50;65.50
21944;DHT22;11136;48.778;9.126;2023-07-13T09:23:31;24.50;66.00
21944;DHT22;11136;48.778;9.126;2023-07-13T09:28:41;24.40;65.40
21944;DHT22;11136;48.778;9.126;2023-07-13T09:31:19;24.30;65.30
21944;DHT22;11136;48.778;9.126;2023-07-13T09:33:47;24.30;65.70
21944;DHT22;11136;48.778;9.126;2023-07-13T09:36:31;24.30;65.40
21944;DHT22;11136;48.778;9.126;2023-07-13T09:39:21;24.40;66.10
21944;DHT22;11136;48.778;9.126;2023-07-13T09:44:43;24.70;65.40
21944;DHT22;11136;48.778;9.126;2023-07-13T09:47:40;24.80;64.40
21944;DHT22;11136;48.778;9.126;2023-07-13T09:50:15;25.00;64.30
21944;DHT22;11136;48.778;9.126;2023-07-13T09:52:46;25.00;63.80
21944;DHT22;11136;48.778;9.126;2023-07-13T09:55:32;25.10;63.00
21944;DHT22;11136;48.778;9.126;2023-07-13T09:58:24;25.10;62.90
21944;DHT22;11136;48.778;9.126;2023-07-13T10:01:01;25.10;63.00
21944;DHT22;11136;48.778;9.126;2023-07-13T10:03:33;25.20;62.90
21944;DHT22;11136;48.778;9.126;2023-07-13T10:06:14;25.20;62.40
21944;DHT22;11136;48.778;9.126;2023-07-13T10:08:40;25.30;61.70
21944;DHT22;11136;48.778;9.126;2023-07-13T10:11:22;25.30;61.30
21944;DHT22;11136;48.778;9.126;2023-07-13T10:16:25;25.40;62.30
21944;DHT22;11136;48.778;9.126;2023-07-13T10:19:23;25.70;62.20
21944;DHT22;11136;48.778;9.126;2023-07-13T10:22:00;25.50;60.70
21944;DHT22;11136;48.778;9.126;2023-07-13T10:24:36;25.50;61.40
21944;DHT22;11136;48.778;9.126;2023-07-13T10:27:20;25.50;61.50
21944;DHT22;11136;48.778;9.126;2023-07-13T10:32:25;25.60;60.40
21944;DHT22;11136;48.778;9.126;2023-07-13T10:34:51;25.70;60.90
21944;DHT22;11136;48.778;9.126;2023-07-13T10:37:23;25.80;60.90
21944;DHT22;11136;48.778;9.126;2023-07-13T10:39:52;25.80;60.30
21944;DHT22;11136;48.778;9.126;2023-07-13T10:42:27;25.80;60.20
21944;DHT22;11136;48.778;9.126;2023-07-13T10:44:53;25.80;60.00
21944;DHT22;11136;48.778;9.126;2023-07-13T10:47:19;25.70;59.80
21944;DHT22;11136;48.778;9.126;2023-07-13T10:49:45;25.70;59.70
21944;DHT22;11136;48.778;9.126;2023-07-13T10:52:48;25.70;60.40
21944;DHT22;11136;48.778;9.126;2023-07-13T10:58:18;25.80;60.70
21944;DHT22;11136;48.778;9.126;2023-07-13T11:01:03;25.80;60.20
21944;DHT22;11136;48.778;9.126;2023-07-13T11:03:30;25.80;60.00
21944;DHT22;11136;48.778;9.126;2023-07-13T11:08:54;25.80;60.20
21944;DHT22;11136;48.778;9.126;2023-07-13T11:21:19;25.80;60.20
21944;DHT22;11136;48.778;9.126;2023-07-13T11:24:01;25.80;60.70
21944;DHT22;11136;48.778;9.126;2023-07-13T11:32:00;26.20;59.90
21944;DHT22;11136;48.778;9.126;2023-07-13T11:34:33;26.30;59.80
21944;DHT22;11136;48.778;9.126;2023-07-13T11:37:00;26.40;59.50
21944;DHT22;11136;48.778;9.126;2023-07-13T11:39:37;26.50;59.30
21944;DHT22;11136;48.778;9.126;2023-07-13T11:42:06;26.80;59.80
21944;DHT22;11136;48.778;9.126;2023-07-13T11:44:34;26.90;58.40
21944;DHT22;11136;48.778;9.126;2023-07-13T11:47:09;26.90;58.10
21944;DHT22;11136;48.778;9.126;2023-07-13T11:49:42;27.00;57.90
21944;DHT22;11136;48.778;9.126;2023-07-13T11:52:19;27.00;58.10
21944;DHT22;11136;48.778;9.126;2023-07-13T11:54:49;27.00;57.70
21944;DHT22;11136;48.778;9.126;2023-07-13T11:57:28;26.90;57.90
21944;DHT22;11136;48.778;9.126;2023-07-13T11:59:55;26.90;58.60
21944;DHT22;11136;48.778;9.126;2023-07-13T12:02:33;27.20;58.70
21944;DHT22;11136;48.778;9.126;2023-07-13T12:05:00;27.10;58.30
21944;DHT22;11136;48.778;9.126;2023-07-13T12:07:28;27.30;57.80
21944;DHT22;11136;48.778;9.126;2023-07-13T12:10:22;27.40;57.20
21944;DHT22;11136;48.778;9.126;2023-07-13T12:12:53;27.60;56.60
21944;DHT22;11136;48.778;9.126;2023-07-13T12:15:21;27.50;55.90
21944;DHT22;11136;48.778;9.126;2023-07-13T12:17:48;27.60;56.10
21944;DHT22;11136;48.778;9.126;2023-07-13T12:20:28;27.90;56.30
21944;DHT22;11136;48.778;9.126;2023-07-13T12:22:58;27.80;55.60
21944;DHT22;11136;48.778;9.126;2023-07-13T12:25:24;27.90;55.40
21944;DHT22;11136;48.778;9.126;2023-07-13T12:27:51;27.90;55.20
21944;DHT22;11136;48.778;9.126;2023-07-13T12:30:27;27.90;55.10
21944;DHT22;11136;48.778;9.126;2023-07-13T12:33:00;28.20;55.10
21944;DHT22;11136;48.778;9.126;2023-07-13T12:35:28;28.10;54.40
21944;DHT22;11136;48.778;9.126;2023-07-13T12:37:57;28.20;54.80
21944;DHT22;11136;48.778;9.126;2023-07-13T12:40:28;28.30;54.80
21944;DHT22;11136;48.778;9.126;2023-07-13T12:42:56;28.40;54.30
21944;DHT22;11136;48.778;9.126;2023-07-13T12:45:25;28.60;54.40
21944;DHT22;11136;48.778;9.126;2023-07-13T12:47:56;28.60;54.00
21944;DHT22;11136;48.778;9.126;2023-07-13T12:50:33;28.80;53.40
21944;DHT22;11136;48.778;9.126;2023-07-13T12:53:03;29.00;53.50
21944;DHT22;11136;48.778;9.126;2023-07-13T12:55:29;29.10;53.30
21944;DHT22;11136;48.778;9.126;2023-07-13T12:57:59;29.20;53.30
21944;DHT22;11136;48.778;9.126;2023-07-13T13:00:30;29.30;53.10
21944;DHT22;11136;48.778;9.126;2023-07-13T13:03:05;29.30;52.70
21944;DHT22;11136;48.778;9.126;2023-07-13T13:05:33;29.40;52.10
21944;DHT22;11136;48.778;9.126;2023-07-13T13:07:59;29.40;51.50
21944;DHT22;11136;48.778;9.126;2023-07-13T13:10:25;29.20;51.40
21944;DHT22;11136;48.778;9.126;2023-07-13T13:12:52;29.00;51.10
21944;DHT22;11136;48.778;9.126;2023-07-13T13:15:18;28.80;51.50
21944;DHT22;11136;48.778;9.126;2023-07-13T13:17:43;28.70;51.10
21944;DHT22;11136;48.778;9.126;2023-07-13T13:20:16;28.50;51.80
21944;DHT22;11136;48.778;9.126;2023-07-13T13:22:42;28.60;52.10
21944;DHT22;11136;48.778;9.126;2023-07-13T13:25:12;28.70;52.30
21944;DHT22;11136;48.778;9.126;2023-07-13T13:27:39;28.80;51.70
21944;DHT22;11136;48.778;9.126;2023-07-13T13:30:11;28.80;51.70
21944;DHT22;11136;48.778;9.126;2023-07-13T13:32:39;29.00;51.80
21944;DHT22;11136;48.778;9.126;2023-07-13T13:35:05;28.90;51.30
21944;DHT22;11136;48.778;9.126;2023-07-13T13:37:33;28.90;51.00
21944;DHT22;11136;48.778;9.126;2023-07-13T13:39:59;28.70;51.10
21944;DHT22;11136;48.778;9.126;2023-07-13T13:42:25;28.60;51.70
21944;DHT22;11136;48.778;9.126;2023-07-13T13:44:52;28.90;52.70
21944;DHT22;11136;48.778;9.126;2023-07-13T13:47:33;28.90;52.30
21944;DHT22;11136;48.778;9.126;2023-07-13T13:50:02;29.10;52.10
21944;DHT22;11136;48.778;9.126;2023-07-13T13:52:28;29.30;52.00
21944;DHT22;11136;48.778;9.126;2023-07-13T13:54:53;29.30;51.20
21944;DHT22;11136;48.778;9.126;2023-07-13T13:57:25;29.40;51.00
21944;DHT22;11136;48.778;9.126;2023-07-13T13:59:51;29.60;51.10
21944;DHT22;11136;48.778;9.126;2023-07-13T14:02:27;29.70;50.70
21944;DHT22;11136;48.778;9.126;2023-07-13T14:05:03;29.70;50.10
21944;DHT22;11136;48.778;9.126;2023-07-13T14:07:28;29.60;49.00
21944;DHT22;11136;48.778;9.126;2023-07-13T14:09:58;29.30;49.60
21944;DHT22;11136;48.778;9.126;2023-07-13T14:12:28;29.20;50.20
21944;DHT22;11136;48.778;9.126;2023-07-13T14:14:57;29.30;50.10
21944;DHT22;11136;48.778;9.126;2023-07-13T14:17:25;29.10;50.30
21944;DHT22;11136;48.778;9.126;2023-07-13T14:19:52;29.30;50.30
21944;DHT22;11136;48.778;9.126;2023-07-13T14:22:23;29.40;50.60
21944;DHT22;11136;48.778;9.126;2023-07-13T14:24:49;29.60;50.70
21944;DHT22;11136;48.778;9.126;2023-07-13T14:27:15;29.80;50.70
21944;DHT22;11136;48.778;9.126;2023-07-13T14:29:41;30.10;50.30
21944;DHT22;11136;48.778;9.126;2023-07-13T14:32:11;30.30;50.50
21944;DHT22;11136;48.778;9.126;2023-07-13T14:34:37;30.50;49.80
21944;DHT22;11136;48.778;9.126;2023-07-13T14:37:03;30.60;49.50
21944;DHT22;11136;48.778;9.126;2023-07-13T14:39:29;30.80;49.00
21944;DHT22;11136;48.778;9.126;2023-07-13T14:41:56;31.00;49.40
21944;DHT22;11136;48.778;9.126;2023-07-13T14:44:25;31.20;48.50
21944;DHT22;11136;48.778;9.126;2023-07-13T14:46:52;31.20;47.80
21944;DHT22;11136;48.778;9.126;2023-07-13T14:52:15;30.80;47.90
21944;DHT22;11136;48.778;9.126;2023-07-13T14:54:42;30.70;47.60
21944;DHT22;11136;48.778;9.126;2023-07-13T14:57:13;30.40;47.80
21944;DHT22;11136;48.778;9.126;2023-07-13T14:59:39;30.30;48.00
21944;DHT22;11136;48.778;9.126;2023-07-13T15:02:32;30.20;48.70
21944;DHT22;11136;48.778;9.126;2023-07-13T15:04:59;29.90;48.90
21944;DHT22;11136;48.778;9.126;2023-07-13T15:07:25;30.10;49.20
21944;DHT22;11136;48.778;9.126;2023-07-13T15:09:50;30.10;49.20
21944;DHT22;11136;48.778;9.126;2023-07-13T15:12:17;30.20;49.20
21944;DHT22;11136;48.778;9.126;2023-07-13T15:14:43;30.40;48.90
21944;DHT22;11136;48.778;9.126;2023-07-13T15:17:29;30.40;48.80
21944;DHT22;11136;48.778;9.126;2023-07-13T15:19:56;30.80;48.60
21944;DHT22;11136;48.778;9.126;2023-07-13T15:22:22;31.00;48.40
21944;DHT22;11136;48.778;9.126;2023-07-13T15:24:47;31.10;48.30
21944;DHT22;11136;48.778;9.126;2023-07-13T15:27:13;31.30;47.90
21944;DHT22;11136;48.778;9.126;2023-07-13T15:29:39;31.50;47.70
21944;DHT22;11136;48.778;9.126;2023-07-13T15:32:15;31.60;47.70
21944;DHT22;11136;48.778;9.126;2023-07-13T15:34:41;31.70;46.90
21944;DHT22;11136;48.778;9.126;2023-07-13T15:37:14;31.80;47.00
21944;DHT22;11136;48.778;9.126;2023-07-13T15:39:40;31.80;46.60
21944;DHT22;11136;48.778;9.126;2023-07-13T15:42:15;31.90;46.40
21944;DHT22;11136;48.778;9.126;2023-07-13T15:44:42;31.80;46.40
21944;DHT22;11136;48.778;9.126;2023-07-13T15:47:15;31.70;46.50
21944;DHT22;11136;48.778;9.126;2023-07-13T15:49:41;31.70;46.40
21944;DHT22;11136;48.778;9.126;2023-07-13T15:52:17;31.70;46.00
21944;DHT22;11136;48.778;9.126;2023-07-13T15:54:44;31.80;46.10
21944;DHT22;11136;48.778;9.126;2023-07-13T15:57:10;31.50;46.10
21944;DHT22;11136;48.778;9.126;2023-07-13T15:59:37;31.30;46.00
21944;DHT22;11136;48.778;9.126;2023-07-13T16:02:20;31.00;45.90
21944;DHT22;11136;48.778;9.126;2023-07-13T16:04:49;31.00;46.30
21944;DHT22;11136;48.778;9.126;2023-07-13T16:07:16;30.50;46.50
21944;DHT22;11136;48.778;9.126;2023-07-13T16:09:46;30.30;46.80
21944;DHT22;11136;48.778;9.126;2023-07-13T16:12:13;30.00;47.00
21944;DHT22;11136;48.778;9.126;2023-07-13T16:14:40;29.80;47.40
21944;DHT22;11136;48.778;9.126;2023-07-13T16:17:11;29.70;47.40
21944;DHT22;11136;48.778;9.126;2023-07-13T16:19:37;29.40;47.40
21944;DHT22;11136;48.778;9.126;2023-07-13T16:22:03;29.20;47.80